createdAt,value
2017-12-17T00:01:08.301Z,2.90
2017-12-17T00:03:35.743Z,2.90
2017-12-17T00:06:03.257Z,2.90
2017-12-17T00:08:30.737Z,2.90
2017-12-17T00:10:58.174Z,2.90
2017-12-17T00:13:25.668Z,2.90
2017-12-17T00:15:53.111Z,2.90
2017-12-17T00:18:20.617Z,3.00
2017-12-17T00:20:48.057Z,2.90
2017-12-17T00:23:16.313Z,2.90
2017-12-17T00:25:43.779Z,2.90
2017-12-17T00:28:11.994Z,2.90
2017-12-17T00:30:39.447Z,3.00
2017-12-17T00:33:06.936Z,3.00
2017-12-17T00:35:34.388Z,3.00
2017-12-17T00:38:01.842Z,2.90
2017-12-17T00:40:29.288Z,3.00
2017-12-17T00:42:56.731Z,3.00
2017-12-17T00:45:24.186Z,3.00
2017-12-17T00:47:51.643Z,3.10
2017-12-17T00:50:19.099Z,3.00
2017-12-17T00:52:46.555Z,3.00
2017-12-17T00:55:14.011Z,3.10
2017-12-17T00:57:41.467Z,3.10
2017-12-17T01:00:08.924Z,3.10
2017-12-17T01:02:36.383Z,3.10
2017-12-17T01:05:03.834Z,3.10
2017-12-17T01:07:31.294Z,3.10
2017-12-17T01:09:59.504Z,3.10
2017-12-17T01:12:26.955Z,3.10
2017-12-17T01:14:54.399Z,3.00
2017-12-17T01:17:21.857Z,3.00
2017-12-17T01:19:49.298Z,3.00
2017-12-17T01:22:16.743Z,3.10
2017-12-17T01:24:44.203Z,3.00
2017-12-17T01:27:11.664Z,3.00
2017-12-17T01:29:39.110Z,3.00
2017-12-17T01:32:06.574Z,3.00
2017-12-17T01:34:34.022Z,3.10
2017-12-17T01:37:01.479Z,3.10
2017-12-17T01:39:28.990Z,3.00
2017-12-17T01:41:56.395Z,3.00
2017-12-17T01:44:23.846Z,3.00
2017-12-17T01:46:51.303Z,3.00
2017-12-17T01:49:18.757Z,3.10
2017-12-17T01:51:46.213Z,3.00
2017-12-17T01:54:14.427Z,3.10
2017-12-17T01:56:41.897Z,3.00
2017-12-17T01:59:09.330Z,3.00
2017-12-17T02:01:36.815Z,3.10
2017-12-17T02:04:05.031Z,3.10
2017-12-17T02:06:32.490Z,3.00
2017-12-17T02:08:59.954Z,3.00
2017-12-17T02:11:27.400Z,3.00
2017-12-17T02:13:54.858Z,3.00
2017-12-17T02:16:22.319Z,3.10
2017-12-17T02:18:49.772Z,3.00
2017-12-17T02:21:17.234Z,3.00
2017-12-17T02:23:44.688Z,3.00
2017-12-17T02:26:12.143Z,3.00
2017-12-17T02:28:39.602Z,3.00
2017-12-17T02:31:07.044Z,3.00
2017-12-17T02:33:34.511Z,3.00
2017-12-17T02:36:01.959Z,3.00
2017-12-17T02:38:29.421Z,3.00
2017-12-17T02:40:56.874Z,3.00
2017-12-17T02:43:24.340Z,3.00
2017-12-17T02:45:51.796Z,3.00
2017-12-17T02:48:19.243Z,2.90
2017-12-17T02:50:46.701Z,2.90
2017-12-17T02:53:14.151Z,2.90
2017-12-17T02:55:41.620Z,2.90
2017-12-17T02:58:09.069Z,2.80
2017-12-17T03:00:36.539Z,2.80
2017-12-17T03:03:03.978Z,2.80
2017-12-17T03:05:31.436Z,2.80
2017-12-17T03:07:59.708Z,2.80
2017-12-17T03:10:27.151Z,2.90
2017-12-17T03:12:54.589Z,2.90
2017-12-17T03:15:22.821Z,2.90
2017-12-17T03:17:50.275Z,2.90
2017-12-17T03:20:17.735Z,2.90
2017-12-17T03:22:45.190Z,2.90
2017-12-17T03:25:12.651Z,2.80
2017-12-17T03:27:40.099Z,2.90
2017-12-17T03:30:07.557Z,3.00
2017-12-17T03:32:35.016Z,2.90
2017-12-17T03:35:02.496Z,3.00
2017-12-17T03:37:29.906Z,3.00
2017-12-17T03:39:57.353Z,3.00
2017-12-17T03:42:24.795Z,2.90
2017-12-17T03:44:52.232Z,2.90
2017-12-17T03:47:20.441Z,3.00
2017-12-17T03:49:47.895Z,2.90
2017-12-17T03:52:15.344Z,3.00
2017-12-17T03:54:42.816Z,3.00
2017-12-17T03:57:10.268Z,3.00
2017-12-17T03:59:37.722Z,3.00
2017-12-17T04:02:05.168Z,3.00
2017-12-17T04:04:32.606Z,3.00
2017-12-17T04:07:00.059Z,3.00
2017-12-17T04:09:27.502Z,3.00
2017-12-17T04:11:55.719Z,3.00
2017-12-17T04:14:23.170Z,2.90
2017-12-17T04:16:50.631Z,3.00
2017-12-17T04:19:18.836Z,3.00
2017-12-17T04:21:46.297Z,2.90
2017-12-17T04:24:13.749Z,2.90
2017-12-17T04:26:41.206Z,2.90
2017-12-17T04:29:08.671Z,2.90
2017-12-17T04:31:36.131Z,2.90
2017-12-17T04:34:04.406Z,2.80
2017-12-17T04:36:31.859Z,2.90
2017-12-17T04:38:59.302Z,2.90
2017-12-17T04:41:26.758Z,2.90
2017-12-17T04:43:54.202Z,3.00
2017-12-17T04:46:21.659Z,2.90
2017-12-17T04:48:49.103Z,2.90
2017-12-17T04:51:16.546Z,2.90
2017-12-17T04:53:43.990Z,2.90
2017-12-17T04:56:11.448Z,2.90
2017-12-17T04:58:38.896Z,2.90
2017-12-17T05:01:06.351Z,2.90
2017-12-17T05:03:33.809Z,2.90
2017-12-17T05:06:01.246Z,2.90
2017-12-17T05:08:29.463Z,2.90
2017-12-17T05:10:56.918Z,2.90
2017-12-17T05:13:24.374Z,2.90
2017-12-17T05:15:51.835Z,2.90
2017-12-17T05:18:19.286Z,2.90
2017-12-17T05:20:46.808Z,2.90
2017-12-17T05:23:14.197Z,2.90
2017-12-17T05:25:41.651Z,2.90
2017-12-17T05:28:09.119Z,2.90
2017-12-17T05:30:36.562Z,2.90
2017-12-17T05:33:04.774Z,2.90
2017-12-17T05:35:32.223Z,2.90
2017-12-17T05:37:59.679Z,2.90
2017-12-17T05:40:27.127Z,2.90
2017-12-17T05:42:54.598Z,2.90
2017-12-17T05:45:22.051Z,2.90
2017-12-17T05:47:49.507Z,2.90
2017-12-17T05:50:16.967Z,2.80
2017-12-17T05:52:44.418Z,2.80
2017-12-17T05:55:11.864Z,2.80
2017-12-17T05:57:39.322Z,2.80
2017-12-17T06:00:06.778Z,2.80
2017-12-17T06:02:34.231Z,2.80
2017-12-17T06:05:01.689Z,2.80
2017-12-17T06:07:29.142Z,2.80
2017-12-17T06:09:56.586Z,2.80
2017-12-17T06:12:24.047Z,2.70
2017-12-17T06:14:51.491Z,2.70
2017-12-17T06:17:18.945Z,2.80
2017-12-17T06:19:46.398Z,2.70
2017-12-17T06:22:13.858Z,2.80
2017-12-17T06:24:41.314Z,2.80
2017-12-17T06:27:08.772Z,2.80
2017-12-17T06:29:36.222Z,2.70
2017-12-17T06:32:03.683Z,2.70
2017-12-17T06:34:31.138Z,2.70
2017-12-17T06:36:58.590Z,2.70
2017-12-17T06:39:26.033Z,2.70
2017-12-17T06:41:53.495Z,2.60
2017-12-17T06:44:20.963Z,2.60
2017-12-17T06:46:48.418Z,2.60
2017-12-17T06:49:15.873Z,2.70
2017-12-17T06:51:43.351Z,2.70
2017-12-17T06:54:11.622Z,2.70
2017-12-17T06:56:39.063Z,2.70
2017-12-17T06:59:06.520Z,2.70
2017-12-17T07:01:33.973Z,2.70
2017-12-17T07:04:01.432Z,2.70
2017-12-17T07:06:28.882Z,2.70
2017-12-17T07:08:56.343Z,2.70
2017-12-17T07:11:23.827Z,2.70
2017-12-17T07:13:51.282Z,2.60
2017-12-17T07:16:18.735Z,2.60
2017-12-17T07:18:46.191Z,2.60
2017-12-17T07:21:13.656Z,2.60
2017-12-17T07:23:41.115Z,2.60
2017-12-17T07:26:08.573Z,2.60
2017-12-17T07:28:36.039Z,2.60
2017-12-17T07:31:04.303Z,2.50
2017-12-17T07:33:31.775Z,2.60
2017-12-17T07:35:59.248Z,2.50
2017-12-17T07:38:26.698Z,2.50
2017-12-17T07:40:54.143Z,2.50
2017-12-17T07:43:21.586Z,2.40
2017-12-17T07:45:49.153Z,2.40
2017-12-17T07:48:17.394Z,2.20
2017-12-17T07:50:44.851Z,2.20
2017-12-17T07:53:12.302Z,2.10
2017-12-17T07:55:41.126Z,2.10
2017-12-17T07:58:08.587Z,2.10
2017-12-17T08:00:36.055Z,2.00
2017-12-17T08:03:03.511Z,1.90
2017-12-17T08:05:31.735Z,1.90
2017-12-17T08:07:59.223Z,1.80
2017-12-17T08:10:26.666Z,1.90
2017-12-17T08:12:54.150Z,1.80
2017-12-17T08:15:21.608Z,1.90
2017-12-17T08:17:49.118Z,2.00
2017-12-17T08:20:16.570Z,2.00
2017-12-17T08:22:44.031Z,2.10
2017-12-17T08:25:11.494Z,2.00
2017-12-17T08:27:38.943Z,2.10
2017-12-17T08:30:06.449Z,2.20
2017-12-17T08:32:34.662Z,2.30
2017-12-17T08:35:02.197Z,2.30
2017-12-17T08:37:29.638Z,2.30
2017-12-17T08:39:57.850Z,2.30
2017-12-17T08:42:25.302Z,2.40
2017-12-17T08:44:52.763Z,2.30
2017-12-17T08:47:20.215Z,2.30
2017-12-17T08:49:48.418Z,2.40
2017-12-17T08:52:15.967Z,2.30
2017-12-17T08:54:43.429Z,2.40
2017-12-17T08:57:10.884Z,2.40
2017-12-17T08:59:38.326Z,2.50
2017-12-17T09:02:05.824Z,2.50
2017-12-17T09:04:33.302Z,2.50
2017-12-17T09:07:00.723Z,2.50
2017-12-17T09:09:28.162Z,2.50
2017-12-17T09:11:55.623Z,2.50
2017-12-17T09:14:23.060Z,2.50
2017-12-17T09:16:50.507Z,2.60
2017-12-17T09:19:17.963Z,2.70
2017-12-17T09:21:45.418Z,2.80
2017-12-17T09:24:12.858Z,2.90
2017-12-17T09:26:40.314Z,2.90
2017-12-17T09:29:07.854Z,2.90
2017-12-17T09:31:36.075Z,2.90
2017-12-17T09:34:03.524Z,2.80
2017-12-17T09:36:30.975Z,2.90
2017-12-17T09:38:58.437Z,2.90
2017-12-17T09:41:25.890Z,2.90
2017-12-17T09:43:53.342Z,3.10
2017-12-17T09:46:20.814Z,3.10
2017-12-17T09:48:48.256Z,3.10
2017-12-17T09:51:15.707Z,3.20
2017-12-17T09:53:43.148Z,3.10
2017-12-17T09:56:10.722Z,3.20
2017-12-17T09:58:38.179Z,3.20
2017-12-17T10:01:05.694Z,3.30
2017-12-17T10:03:33.168Z,3.30
2017-12-17T10:06:01.372Z,3.30
2017-12-17T10:08:28.824Z,3.30
2017-12-17T10:10:56.628Z,3.40
2017-12-17T10:13:24.070Z,3.50
2017-12-17T10:15:51.523Z,3.50
2017-12-17T10:18:18.980Z,3.60
2017-12-17T10:20:46.427Z,3.60
2017-12-17T10:23:13.897Z,3.50
2017-12-17T10:25:41.357Z,3.40
2017-12-17T10:28:08.815Z,3.30
2017-12-17T10:30:36.247Z,3.30
2017-12-17T10:33:03.712Z,3.30
2017-12-17T10:35:31.166Z,3.30
2017-12-17T10:37:58.621Z,3.30
2017-12-17T10:40:26.091Z,3.40
2017-12-17T10:42:53.527Z,3.30
2017-12-17T10:45:20.994Z,3.20
2017-12-17T10:47:49.306Z,3.20
2017-12-17T10:50:17.531Z,3.10
2017-12-17T10:52:45.010Z,3.10
2017-12-17T10:55:12.454Z,3.10
2017-12-17T10:57:39.923Z,3.10
2017-12-17T11:00:07.362Z,3.20
2017-12-17T11:02:34.846Z,3.30
2017-12-17T11:05:03.089Z,3.30
2017-12-17T11:07:30.684Z,3.40
2017-12-17T11:09:58.154Z,3.40
2017-12-17T11:12:26.393Z,3.40
2017-12-17T11:14:53.864Z,3.40
2017-12-17T11:17:21.298Z,3.40
2017-12-17T11:19:48.747Z,3.30
2017-12-17T11:22:16.194Z,3.30
2017-12-17T11:24:43.645Z,3.30
2017-12-17T11:27:11.106Z,3.40
2017-12-17T11:29:38.553Z,3.40
2017-12-17T11:32:09.952Z,3.50
2017-12-17T11:34:37.403Z,3.40
2017-12-17T11:37:04.895Z,3.40
2017-12-17T11:39:32.327Z,3.30
2017-12-17T11:41:59.813Z,3.20
2017-12-17T11:44:28.018Z,3.20
2017-12-17T11:46:55.900Z,3.10
2017-12-17T11:49:23.419Z,3.20
2017-12-17T11:51:50.922Z,3.20
2017-12-17T11:54:18.505Z,3.10
2017-12-17T11:56:46.825Z,3.10
2017-12-17T11:59:14.278Z,3.10
2017-12-17T12:01:41.728Z,3.10
2017-12-17T12:04:09.192Z,3.00
2017-12-17T12:06:36.652Z,3.00
2017-12-17T12:09:04.143Z,3.00
2017-12-17T12:11:31.582Z,3.00
2017-12-17T12:13:59.026Z,3.10
2017-12-17T12:16:27.540Z,3.00
2017-12-17T12:18:54.974Z,3.00
2017-12-17T12:21:22.447Z,3.10
2017-12-17T12:23:49.937Z,3.10
2017-12-17T12:26:18.146Z,3.10
2017-12-17T12:28:45.612Z,3.10
2017-12-17T12:31:13.064Z,3.10
2017-12-17T12:33:40.527Z,3.20
2017-12-17T12:36:08.032Z,3.20
2017-12-17T12:38:35.524Z,3.20
2017-12-17T12:41:02.970Z,3.30
2017-12-17T12:43:30.430Z,3.30
2017-12-17T12:45:57.928Z,3.30
2017-12-17T12:48:25.448Z,3.30
2017-12-17T12:50:52.965Z,3.30
2017-12-17T12:53:21.184Z,3.30
2017-12-17T12:55:48.647Z,3.30
2017-12-17T12:58:16.093Z,3.30
2017-12-17T13:00:43.576Z,3.30
2017-12-17T13:03:11.063Z,3.30
2017-12-17T13:05:38.511Z,3.40
2017-12-17T13:08:05.984Z,3.40
2017-12-17T13:10:34.246Z,3.40
2017-12-17T13:13:01.690Z,3.30
2017-12-17T13:15:29.177Z,3.40
2017-12-17T13:17:56.614Z,3.40
2017-12-17T13:20:24.838Z,3.30
2017-12-17T13:22:52.346Z,3.30
2017-12-17T13:25:20.732Z,3.30
2017-12-17T13:27:48.194Z,3.20
2017-12-17T13:30:16.482Z,3.30
2017-12-17T13:32:43.926Z,3.30
2017-12-17T13:35:11.370Z,3.40
2017-12-17T13:37:39.645Z,3.30
2017-12-17T13:40:07.120Z,3.30
2017-12-17T13:42:34.607Z,3.30
2017-12-17T13:45:02.090Z,3.30
2017-12-17T13:47:29.524Z,3.30
2017-12-17T13:49:56.967Z,3.30
2017-12-17T13:52:24.422Z,3.40
2017-12-17T13:54:51.908Z,3.40
2017-12-17T13:57:19.404Z,3.40
2017-12-17T13:59:47.625Z,3.30
2017-12-17T14:02:15.121Z,3.30
2017-12-17T14:04:42.583Z,3.30
2017-12-17T14:07:10.839Z,3.20
2017-12-17T14:09:38.319Z,3.20
2017-12-17T14:12:06.559Z,3.30
2017-12-17T14:14:34.046Z,3.20
2017-12-17T14:17:02.333Z,3.20
2017-12-17T14:19:30.601Z,3.20
2017-12-17T14:21:58.101Z,3.10
2017-12-17T14:24:25.544Z,3.20
2017-12-17T14:26:52.984Z,3.10
2017-12-17T14:29:20.456Z,3.10
2017-12-17T14:31:47.957Z,3.10
2017-12-17T14:34:15.448Z,3.10
2017-12-17T14:36:43.654Z,3.00
2017-12-17T14:39:11.142Z,3.00
2017-12-17T14:41:39.320Z,3.00
2017-12-17T14:44:06.813Z,3.00
2017-12-17T14:46:35.020Z,3.00
2017-12-17T14:49:02.470Z,3.00
2017-12-17T14:51:29.949Z,3.00
2017-12-17T14:53:57.432Z,3.00
2017-12-17T14:56:24.919Z,3.00
2017-12-17T14:58:52.438Z,2.90
2017-12-17T15:01:19.901Z,2.90
2017-12-17T15:03:47.401Z,2.90
2017-12-17T15:06:14.881Z,2.90
2017-12-17T15:08:42.438Z,2.90
2017-12-17T15:11:09.879Z,2.90
2017-12-17T15:13:37.340Z,2.90
2017-12-17T15:16:04.837Z,2.90
2017-12-17T15:18:32.334Z,2.90
2017-12-17T15:20:59.783Z,2.80
2017-12-17T15:23:27.230Z,2.80
2017-12-17T15:25:54.728Z,2.80
2017-12-17T15:28:22.234Z,2.80
2017-12-17T15:30:49.736Z,2.80
2017-12-17T15:33:17.223Z,2.80
2017-12-17T15:35:44.699Z,2.80
2017-12-17T15:38:12.918Z,2.70
2017-12-17T15:40:40.409Z,2.70
2017-12-17T15:43:07.898Z,2.70
2017-12-17T15:45:36.111Z,2.70
2017-12-17T15:48:03.606Z,2.70
2017-12-17T15:50:31.046Z,2.60
2017-12-17T15:52:58.495Z,2.60
2017-12-17T15:55:25.998Z,2.60
2017-12-17T15:57:54.254Z,2.60
2017-12-17T16:00:21.754Z,2.60
2017-12-17T16:02:49.191Z,2.60
2017-12-17T16:05:17.415Z,2.60
2017-12-17T16:07:44.923Z,2.60
2017-12-17T16:10:13.176Z,2.60
2017-12-17T16:12:40.618Z,2.60
2017-12-17T16:15:08.133Z,2.60
2017-12-17T16:17:35.562Z,2.60
2017-12-17T16:20:04.382Z,2.70
2017-12-17T16:22:31.909Z,2.70
2017-12-17T16:25:00.142Z,2.60
2017-12-17T16:27:27.646Z,2.60
2017-12-17T16:29:55.914Z,2.60
2017-12-17T16:32:24.176Z,2.60
2017-12-17T16:34:51.614Z,2.60
2017-12-17T16:37:19.121Z,2.60
2017-12-17T16:39:46.612Z,2.70
2017-12-17T16:42:14.095Z,2.70
2017-12-17T16:44:41.575Z,2.60
2017-12-17T16:47:09.797Z,2.60
2017-12-17T16:49:37.289Z,2.60
2017-12-17T16:52:04.799Z,2.70
2017-12-17T16:54:32.287Z,2.60
2017-12-17T16:56:59.784Z,2.60
2017-12-17T16:59:27.994Z,2.70
2017-12-17T17:01:55.503Z,2.70
2017-12-17T17:04:22.943Z,2.70
2017-12-17T17:06:50.400Z,2.70
2017-12-17T17:09:17.911Z,2.70
2017-12-17T17:11:45.446Z,2.80
2017-12-17T17:14:13.001Z,2.80
2017-12-17T17:16:40.502Z,2.80
2017-12-17T17:19:07.989Z,2.80
2017-12-17T17:21:35.485Z,2.80
2017-12-17T17:24:02.922Z,2.80
2017-12-17T17:26:30.370Z,2.80
2017-12-17T17:28:58.583Z,2.70
2017-12-17T17:31:26.092Z,2.70
2017-12-17T17:33:53.581Z,2.70
2017-12-17T17:36:21.042Z,2.70
2017-12-17T17:38:49.427Z,2.70
2017-12-17T17:41:16.944Z,2.70
2017-12-17T17:43:45.180Z,2.70
2017-12-17T17:46:12.676Z,2.60
2017-12-17T17:48:40.938Z,2.60
2017-12-17T17:51:08.375Z,2.60
2017-12-17T17:53:35.841Z,2.60
2017-12-17T17:56:03.343Z,2.60
2017-12-17T17:58:30.851Z,2.60
2017-12-17T18:00:58.827Z,2.50
2017-12-17T18:03:26.327Z,2.50
2017-12-17T18:05:53.835Z,2.50
2017-12-17T18:08:21.333Z,2.50
2017-12-17T18:10:49.628Z,2.60
2017-12-17T18:13:17.087Z,2.60
2017-12-17T18:15:44.555Z,2.60
2017-12-17T18:18:12.197Z,2.50
2017-12-17T18:20:39.694Z,2.50
2017-12-17T18:23:07.187Z,2.50
2017-12-17T18:25:35.719Z,2.50
2017-12-17T18:28:04.046Z,2.40
2017-12-17T18:30:32.329Z,2.40
2017-12-17T18:32:59.780Z,2.40
2017-12-17T18:35:27.293Z,2.40
2017-12-17T18:37:54.854Z,2.40
2017-12-17T18:40:22.469Z,2.40
2017-12-17T18:42:49.964Z,2.40
2017-12-17T18:45:17.470Z,2.40
2017-12-17T18:47:45.020Z,2.40
2017-12-17T18:50:13.308Z,2.40
2017-12-17T18:52:41.576Z,2.40
2017-12-17T18:55:09.101Z,2.40
2017-12-17T18:57:36.615Z,2.40
2017-12-17T19:00:04.192Z,2.40
2017-12-17T19:02:31.765Z,2.40
2017-12-17T19:04:59.334Z,2.40
2017-12-17T19:07:26.904Z,2.30
2017-12-17T19:09:54.416Z,2.30
2017-12-17T19:12:21.919Z,2.40
2017-12-17T19:14:49.429Z,2.30
2017-12-17T19:17:16.878Z,2.30
2017-12-17T19:19:44.334Z,2.20
2017-12-17T19:22:11.855Z,2.20
2017-12-17T19:24:39.420Z,2.20
2017-12-17T19:27:08.723Z,2.10
2017-12-17T19:29:37.157Z,2.10
2017-12-17T19:32:04.728Z,2.10
2017-12-17T19:34:32.241Z,2.10
2017-12-17T19:36:59.695Z,2.10
2017-12-17T19:39:27.451Z,2.10
2017-12-17T19:41:55.037Z,2.10
2017-12-17T19:44:22.564Z,2.10
2017-12-17T19:46:50.770Z,2.20
2017-12-17T19:49:18.378Z,2.20
2017-12-17T19:51:46.697Z,2.20
2017-12-17T19:54:14.286Z,2.20
2017-12-17T19:56:41.831Z,2.20
2017-12-17T19:59:10.162Z,2.10
2017-12-17T20:01:38.516Z,2.10
2017-12-17T20:04:06.934Z,2.10
2017-12-17T20:06:34.538Z,2.10
2017-12-17T20:09:02.055Z,2.10
2017-12-17T20:11:29.574Z,2.10
2017-12-17T20:13:57.266Z,2.00
2017-12-17T20:16:24.843Z,2.00
2017-12-17T20:18:52.383Z,2.00
2017-12-17T20:21:19.923Z,2.00
2017-12-17T20:23:47.441Z,2.00
2017-12-17T20:26:14.955Z,2.00
2017-12-17T20:28:42.449Z,2.00
2017-12-17T20:31:09.967Z,2.00
2017-12-17T20:33:37.471Z,2.00
2017-12-17T20:36:05.000Z,2.00
2017-12-17T20:38:32.504Z,2.00
2017-12-17T20:41:00.001Z,2.10
2017-12-17T20:43:27.516Z,2.10
2017-12-17T20:45:55.562Z,2.10
2017-12-17T20:48:23.067Z,2.10
2017-12-17T20:50:52.457Z,2.10
2017-12-17T20:53:20.784Z,2.20
2017-12-17T20:55:48.312Z,2.20
2017-12-17T20:58:16.675Z,2.20
2017-12-17T21:00:44.983Z,2.30
2017-12-17T21:03:12.504Z,2.20
2017-12-17T21:05:40.830Z,2.20
2017-12-17T21:08:09.166Z,2.20
2017-12-17T21:10:37.482Z,2.20
2017-12-17T21:13:05.023Z,2.20
2017-12-17T21:15:32.598Z,2.20
2017-12-17T21:18:00.424Z,2.20
2017-12-17T21:20:28.739Z,2.20
2017-12-17T21:22:56.350Z,2.20
2017-12-17T21:25:24.643Z,2.20
2017-12-17T21:27:52.150Z,2.20
2017-12-17T21:30:19.743Z,2.20
2017-12-17T21:32:48.034Z,2.10
2017-12-17T21:35:15.640Z,2.10
2017-12-17T21:37:43.964Z,2.10
2017-12-17T21:40:12.588Z,2.20
2017-12-17T21:42:40.115Z,2.20
2017-12-17T21:45:07.773Z,2.30
2017-12-17T21:47:35.373Z,2.20
2017-12-17T21:50:03.019Z,2.20
2017-12-17T21:52:31.373Z,2.10
2017-12-17T21:54:59.323Z,2.10
2017-12-17T21:57:26.850Z,2.20
2017-12-17T21:59:54.455Z,2.20
2017-12-17T22:02:23.225Z,2.40
2017-12-17T22:04:51.258Z,2.40
2017-12-17T22:07:19.323Z,2.50
2017-12-17T22:09:47.189Z,2.50
2017-12-17T22:12:14.722Z,2.60
2017-12-17T22:14:42.234Z,2.50
2017-12-17T22:17:10.170Z,2.50
2017-12-17T22:19:37.665Z,2.50
2017-12-17T22:22:05.230Z,2.50
2017-12-17T22:24:32.753Z,2.50
2017-12-17T22:27:00.374Z,2.50
2017-12-17T22:29:28.781Z,2.50
2017-12-17T22:31:56.274Z,2.50
2017-12-17T22:34:23.795Z,2.50
2017-12-17T22:36:52.150Z,2.50
2017-12-17T22:39:19.851Z,2.50
2017-12-17T22:41:47.362Z,2.50
2017-12-17T22:44:15.923Z,2.50
2017-12-17T22:46:43.425Z,2.50
2017-12-17T22:49:10.931Z,2.50
2017-12-17T22:51:38.510Z,2.50
2017-12-17T22:54:06.851Z,2.50
2017-12-17T22:56:34.359Z,2.50
2017-12-17T22:59:01.854Z,2.50
2017-12-17T23:01:29.363Z,2.60
2017-12-17T23:03:56.938Z,2.60
2017-12-17T23:06:24.494Z,2.60
2017-12-17T23:08:52.070Z,2.60
2017-12-17T23:11:19.642Z,2.60
2017-12-17T23:13:47.140Z,2.50
2017-12-17T23:16:14.585Z,2.50
2017-12-17T23:18:42.159Z,2.50
2017-12-17T23:21:11.530Z,2.50
2017-12-17T23:23:39.118Z,2.50
2017-12-17T23:26:07.636Z,2.50
2017-12-17T23:28:35.131Z,2.50
2017-12-17T23:31:02.665Z,2.50
2017-12-17T23:33:30.124Z,2.50
2017-12-17T23:35:57.575Z,2.50
2017-12-17T23:38:25.024Z,2.50
2017-12-17T23:40:52.486Z,2.50
2017-12-17T23:43:19.946Z,2.60
2017-12-17T23:45:47.411Z,2.50
2017-12-17T23:48:14.878Z,2.50
2017-12-17T23:50:42.356Z,2.40
2017-12-17T23:53:09.858Z,2.40
2017-12-17T23:55:37.927Z,2.40
2017-12-17T23:58:05.437Z,2.50
